Time;durP1;ratioP1;P1;durP2;ratioP2;P2;SDS_P1;SDS_P2;PMS_P1;PMS_P2;Temp;Humidity;BMP_temperature;BMP_pressure;BME280_temperature;BME280_humidity;BME280_pressure;Samples;Min_cycle;Max_cycle;Signal;HPM_P1;HPM_P2
2022/12/25 00:00:54;;;;;;;21.98;11.90;;;;;;;6.26;78.79;98658.84;5090495;28;20678;-68
2022/12/25 00:03:20;;;;;;;23.67;11.77;;;;;;;6.24;78.69;98666.47;5091055;28;20043;-67
2022/12/25 00:05:45;;;;;;;22.38;11.25;;;;;;;6.22;79.23;98672.19;5072339;28;20699;-66
2022/12/25 00:08:11;;;;;;;23.77;11.93;;;;;;;6.23;79.25;98675.72;5089898;28;20077;-65
2022/12/25 00:10:36;;;;;;;25.83;14.65;;;;;;;6.23;79.12;98673.81;5088987;28;20028;-65
2022/12/25 00:13:02;;;;;;;29.58;15.77;;;;;;;6.27;78.93;98673.31;5089394;28;20392;-64
2022/12/25 00:15:27;;;;;;;30.52;17.02;;;;;;;6.28;79.33;98675.75;5070982;28;20051;-65
2022/12/25 00:17:53;;;;;;;35.72;18.15;;;;;;;6.30;78.91;98678.22;5089263;28;20477;-65
2022/12/25 00:20:18;;;;;;;34.45;17.73;;;;;;;6.31;79.33;98688.03;5088808;28;20032;-66
2022/12/25 00:22:43;;;;;;;35.45;18.05;;;;;;;6.32;79.48;98692.38;5089358;28;20630;-65
2022/12/25 00:25:11;;;;;;;39.60;22.60;;;;;;;6.33;78.98;98692.13;5089307;28;20032;-64
2022/12/25 00:27:40;;;;;;;51.63;25.75;;;;;;;6.35;79.28;98695.41;5089349;28;20023;-66
2022/12/25 00:30:06;;;;;;;42.47;20.43;;;;;;;6.36;79.54;98704.38;5088510;28;20059;-65
2022/12/25 00:32:35;;;;;;;39.20;19.17;;;;;;;6.36;79.51;98697.06;5086492;28;20028;-66
2022/12/25 00:35:01;;;;;;;55.60;27.77;;;;;;;6.39;79.72;98706.59;5090185;28;20044;-66
2022/12/25 00:37:26;;;;;;;55.90;27.15;;;;;;;6.41;79.56;98701.69;5090204;28;20103;-66
2022/12/25 00:39:52;;;;;;;40.25;20.00;;;;;;;6.42;79.38;98708.78;5090123;28;20522;-66
2022/12/25 00:42:17;;;;;;;36.40;19.55;;;;;;;6.41;79.39;98701.69;5090064;28;20060;-66
2022/12/25 00:44:43;;;;;;;41.15;20.75;;;;;;;6.39;79.18;98709.31;5089754;28;20028;-67
2022/12/25 00:47:08;;;;;;;45.83;21.95;;;;;;;6.36;79.39;98715.28;5090122;28;20028;-66
2022/12/25 00:49:34;;;;;;;42.33;21.63;;;;;;;6.34;79.12;98722.91;5090331;28;20036;-67
2022/12/25 00:51:59;;;;;;;42.92;21.60;;;;;;;6.31;79.23;98720.72;5090883;28;20032;-66
2022/12/25 00:54:24;;;;;;;41.92;21.33;;;;;;;6.27;78.65;98725.06;5091430;28;20053;-67
2022/12/25 00:56:50;;;;;;;42.67;21.75;;;;;;;6.23;79.37;98725.56;5091201;28;20511;-67
2022/12/25 00:59:15;;;;;;;38.92;20.33;;;;;;;6.21;79.07;98733.19;5091070;28;20080;-67
2022/12/25 01:01:40;;;;;;;38.75;20.42;;;;;;;6.18;79.18;98744.59;5089542;28;20396;-66
2022/12/25 01:04:06;;;;;;;35.17;18.13;;;;;;;6.19;79.65;98738.06;5090535;28;20494;-66
2022/12/25 01:06:32;;;;;;;37.75;17.85;;;;;;;6.20;79.51;98745.16;5090970;28;20020;-66
2022/12/25 01:11:42;;;;;;;39.65;18.90;;;;;;;6.23;79.40;98744.63;5090558;28;20499;-66
2022/12/25 01:14:07;;;;;;;39.95;20.58;;;;;;;6.24;79.71;98753.63;5090998;28;20028;-68
2022/12/25 01:16:33;;;;;;;36.42;19.17;;;;;;;6.26;79.44;98748.72;5072885;28;20024;-67
2022/12/25 01:18:58;;;;;;;40.90;20.30;;;;;;;6.28;79.19;98745.75;5090814;28;20423;-66
2022/12/25 01:21:24;;;;;;;39.67;20.35;;;;;;;6.28;79.28;98748.50;5089548;28;20044;-66
2022/12/25 01:23:51;;;;;;;47.30;22.05;;;;;;;6.29;79.70;98753.66;5090763;28;20020;-67
2022/12/25 01:26:18;;;;;;;37.80;19.67;;;;;;;6.29;79.42;98761.84;5090618;28;20047;-67
2022/12/25 01:28:44;;;;;;;41.78;22.63;;;;;;;6.29;79.35;98769.19;5090924;28;20020;-65
2022/12/25 01:31:14;;;;;;;52.00;27.27;;;;;;;6.27;79.70;98769.44;5071795;28;20392;-66
2022/12/25 01:33:41;;;;;;;63.28;32.08;;;;;;;6.27;79.63;98769.44;5090471;28;20039;-68
2022/12/25 01:36:14;;;;;;;96.53;44.55;;;;;;;6.23;79.57;98771.88;5090602;28;20532;-67
2022/12/25 01:38:40;;;;;;;84.18;38.72;;;;;;;6.18;79.43;98763.66;5089807;28;20484;-66
2022/12/25 01:41:06;;;;;;;66.72;35.17;;;;;;;6.16;79.26;98762.25;5090042;28;20028;-67
2022/12/25 01:43:32;;;;;;;79.45;37.15;;;;;;;6.13;79.43;98758.16;5090625;28;20024;-68
2022/12/25 01:45:58;;;;;;;74.07;36.00;;;;;;;6.09;79.33;98765.22;5089820;28;20032;-67
2022/12/25 01:48:31;;;;;;;78.72;35.88;;;;;;;6.08;79.38;98772.56;5090097;28;20024;-67
2022/12/25 01:51:09;;;;;;;70.40;33.55;;;;;;;6.09;79.76;98771.50;5090092;28;20020;-67
2022/12/25 01:53:35;;;;;;;51.53;27.13;;;;;;;6.08;79.45;98786.19;5089636;28;20028;-67
2022/12/25 01:56:04;;;;;;;57.08;28.50;;;;;;;6.05;79.42;98785.88;5089877;28;20036;-68
2022/12/25 01:58:30;;;;;;;74.60;31.92;;;;;;;6.00;79.46;98777.63;5089707;28;20028;-67
2022/12/25 02:00:56;;;;;;;82.07;35.25;;;;;;;5.96;79.18;98774.59;5089899;28;20020;-67
2022/12/25 02:03:22;;;;;;;75.95;31.45;;;;;;;5.93;79.37;98778.63;5089867;28;20020;-67
2022/12/25 02:05:48;;;;;;;55.55;27.27;;;;;;;5.92;79.36;98787.09;5089944;28;20024;-66
2022/12/25 02:08:16;;;;;;;49.72;25.67;;;;;;;5.88;79.14;98781.34;5090129;28;20042;-67
2022/12/25 02:10:43;;;;;;;53.40;27.85;;;;;;;5.84;79.52;98788.38;5089542;28;20111;-67
2022/12/25 02:13:11;;;;;;;62.40;29.27;;;;;;;5.79;79.32;98782.88;5090067;28;20016;-66
2022/12/25 02:16:08;;;;;;;73.13;32.45;;;;;;;5.76;79.35;98783.38;5089559;28;20546;-67
2022/12/25 02:18:45;;;;;;;76.35;30.77;;;;;;;5.72;79.63;98790.41;5086684;28;20107;-68
2022/12/25 02:21:38;;;;;;;73.07;29.67;;;;;;;5.69;79.21;98791.75;5088923;28;20085;-67
2022/12/25 02:24:38;;;;;;;75.43;32.70;;;;;;;5.65;79.83;98794.16;5089928;28;20515;-67
2022/12/25 02:27:27;;;;;;;47.92;24.23;;;;;;;5.69;79.19;98797.22;5071795;28;20040;-67
2022/12/25 02:30:08;;;;;;;40.25;20.60;;;;;;;5.71;79.41;98786.06;5070938;28;20388;-66
2022/12/25 02:32:42;;;;;;;54.25;23.35;;;;;;;5.72;79.91;98795.88;5090094;28;20032;-67
2022/12/25 02:35:13;;;;;;;37.67;18.85;;;;;;;5.72;79.51;98791.22;5089703;28;20551;-67
2022/12/25 02:37:58;;;;;;;36.22;18.17;;;;;;;5.75;79.72;98779.81;5090215;28;20592;-67
2022/12/25 02:40:31;;;;;;;71.35;29.30;;;;;;;5.77;79.76;98782.31;5085230;28;20046;-67
2022/12/25 03:08:39;;;;;;;43.92;23.90;;;;;;;5.84;79.34;98793.81;5089370;28;20039;-67
2022/12/25 03:16:54;;;;;;;36.40;19.75;;;;;;;5.81;79.71;98808.75;5091417;28;20154;-67
2022/12/25 03:27:55;;;;;;;63.00;27.30;;;;;;;5.80;79.56;98807.09;5092102;28;20070;-67
2022/12/25 03:33:37;;;;;;;55.22;25.45;;;;;;;5.76;79.50;98816.03;5092329;28;20032;-66
2022/12/25 03:36:08;;;;;;;76.85;38.35;;;;;;;5.77;79.62;98813.06;5092306;28;20399;-66
2022/12/25 03:48:08;;;;;;;69.00;26.80;;;;;;;5.73;79.78;98816.56;5091500;28;20054;-66
2022/12/25 04:37:18;;;;;;;23.92;14.10;;;;;;;5.30;79.30;98868.00;5091524;28;20111;-67
2022/12/25 04:39:43;;;;;;;24.98;13.10;;;;;;;5.23;79.02;98862.75;5091571;28;20450;-66
2022/12/25 04:42:08;;;;;;;40.25;19.23;;;;;;;5.20;79.42;98872.22;5091327;28;20045;-67
2022/12/25 04:44:34;;;;;;;57.88;27.13;;;;;;;5.15;79.43;98863.16;5091160;28;20107;-67
2022/12/25 04:46:59;;;;;;;40.17;20.08;;;;;;;5.12;78.87;98866.38;5091411;28;20020;-67
2022/12/25 04:49:25;;;;;;;31.67;16.67;;;;;;;5.09;78.95;98858.75;5091708;28;20089;-66
2022/12/25 04:51:50;;;;;;;29.50;15.20;;;;;;;5.05;79.40;98864.69;5090926;28;20104;-66
2022/12/25 04:54:15;;;;;;;30.35;17.30;;;;;;;5.03;79.39;98863.28;5091321;28;20184;-67
2022/12/25 04:56:41;;;;;;;30.63;17.40;;;;;;;4.98;79.02;98855.03;5091045;28;20020;-67
2022/12/25 04:59:06;;;;;;;30.73;17.27;;;;;;;4.94;78.90;98870.19;5091262;28;20068;-66
2022/12/25 05:01:32;;;;;;;27.13;15.73;;;;;;;4.91;79.15;98868.81;5091136;28;20043;-66
2022/12/25 05:03:57;;;;;;;23.35;14.25;;;;;;;4.87;79.13;98868.50;5091573;28;20021;-66
2022/12/25 05:06:23;;;;;;;25.10;14.30;;;;;;;4.82;79.06;98878.44;5090557;28;20024;-66
2022/12/25 05:08:48;;;;;;;30.27;17.23;;;;;;;4.77;78.67;98881.94;5086982;28;20072;-67
2022/12/25 05:11:14;;;;;;;30.48;17.25;;;;;;;4.72;79.02;98884.56;5072894;28;20028;-67
2022/12/25 05:13:40;;;;;;;26.50;15.70;;;;;;;4.67;79.14;98888.03;5090759;28;20020;-67
2022/12/25 05:16:07;;;;;;;28.38;15.48;;;;;;;4.64;78.65;98888.53;5090285;28;20031;-66
2022/12/25 05:18:33;;;;;;;29.33;15.95;;;;;;;4.59;78.91;98885.72;5090080;28;20491;-67
2022/12/25 05:20:59;;;;;;;27.83;14.55;;;;;;;4.54;78.80;98881.00;5086258;28;20032;-67
2022/12/25 05:23:24;;;;;;;33.83;19.70;;;;;;;4.51;79.13;98875.25;5090562;28;20043;-67
2022/12/25 05:25:49;;;;;;;27.73;16.42;;;;;;;4.43;79.21;98877.28;5089970;28;20038;-66
2022/12/25 05:28:15;;;;;;;28.88;15.98;;;;;;;4.41;79.10;98884.06;5090025;28;20042;-66
2022/12/25 05:30:40;;;;;;;29.00;18.65;;;;;;;4.37;79.20;98888.31;5085912;28;20111;-66
2022/12/25 05:33:06;;;;;;;27.95;15.85;;;;;;;4.32;78.47;98895.31;5089701;28;20026;-66
2022/12/25 05:35:31;;;;;;;28.98;16.55;;;;;;;4.31;78.88;98890.09;5090198;28;20081;-67
2022/12/25 05:37:57;;;;;;;23.55;14.75;;;;;;;4.27;78.89;98895.22;5090208;28;20023;-66
2022/12/25 05:40:22;;;;;;;27.63;15.98;;;;;;;4.22;79.02;98895.13;5089132;28;20388;-66
2022/12/25 05:42:48;;;;;;;34.70;17.65;;;;;;;4.19;79.28;98898.31;5090364;28;20074;-67
2022/12/25 05:45:13;;;;;;;42.65;18.77;;;;;;;4.18;79.48;98907.53;5089981;28;20463;-66
2022/12/25 05:47:39;;;;;;;37.35;17.48;;;;;;;4.16;79.13;98902.34;5090020;28;20106;-67
2022/12/25 05:50:05;;;;;;;35.35;16.42;;;;;;;4.13;79.27;98908.28;5089721;28;20107;-66
2022/12/25 05:52:31;;;;;;;28.30;16.88;;;;;;;4.14;79.59;98906.38;5089993;28;20032;-66
2022/12/25 05:54:58;;;;;;;28.13;16.38;;;;;;;4.11;79.15;98918.53;5089719;28;20464;-66
2022/12/25 05:57:24;;;;;;;34.45;19.88;;;;;;;4.10;79.22;98919.63;5089653;28;20208;-67
2022/12/25 05:59:49;;;;;;;34.95;18.17;;;;;;;4.08;79.46;98919.03;5088389;28;20498;-66
2022/12/25 06:02:14;;;;;;;31.35;17.63;;;;;;;4.05;79.27;98921.41;5089378;28;20392;-67
2022/12/25 06:04:40;;;;;;;25.23;15.00;;;;;;;4.00;79.78;98917.53;5090090;28;20066;-67
2022/12/25 06:07:05;;;;;;;26.85;15.05;;;;;;;3.98;78.98;98919.66;5089538;28;20035;-67
2022/12/25 06:09:31;;;;;;;29.33;15.75;;;;;;;3.93;79.85;98926.88;5088996;28;20035;-66
2022/12/25 06:11:56;;;;;;;24.77;14.85;;;;;;;3.88;79.60;98922.97;5071579;28;20032;-66
2022/12/25 06:14:21;;;;;;;29.42;19.88;;;;;;;3.86;79.81;98918.88;5089622;28;20081;-67
2022/12/25 06:16:50;;;;;;;26.98;15.93;;;;;;;3.83;79.68;98931.03;5089086;28;20024;-67
2022/12/25 06:19:16;;;;;;;27.23;17.17;;;;;;;3.79;79.57;98929.03;5089559;28;20032;-66
2022/12/25 06:21:41;;;;;;;29.08;16.30;;;;;;;3.77;79.35;98934.72;5089183;28;20052;-67
2022/12/25 06:24:06;;;;;;;24.98;14.98;;;;;;;3.76;80.04;98935.78;5089304;28;20111;-67
2022/12/25 06:26:32;;;;;;;29.02;17.27;;;;;;;3.76;79.56;98945.78;5089688;28;20020;-67
2022/12/25 06:28:57;;;;;;;28.45;16.48;;;;;;;3.75;79.62;98942.25;5089345;28;20063;-67
2022/12/25 06:31:23;;;;;;;27.77;16.15;;;;;;;3.73;79.55;98945.19;5089103;28;20585;-66
2022/12/25 06:33:49;;;;;;;26.92;15.85;;;;;;;3.72;79.81;98945.44;5089165;28;20030;-67
2022/12/25 06:36:17;;;;;;;29.02;17.52;;;;;;;3.70;79.62;98951.09;5088989;28;20035;-66
2022/12/25 06:38:43;;;;;;;28.65;16.65;;;;;;;3.69;79.49;98954.06;5089238;28;20028;-67
2022/12/25 06:41:11;;;;;;;31.42;19.38;;;;;;;3.66;79.88;98952.66;5088039;28;20407;-67
2022/12/25 06:43:37;;;;;;;87.13;38.75;;;;;;;3.66;80.01;98958.09;5088134;28;20149;-67
2022/12/25 06:46:04;;;;;;;68.97;37.60;;;;;;;3.65;79.56;98970.00;5092097;28;20134;-66
2022/12/25 06:48:32;;;;;;;63.58;35.42;;;;;;;3.65;79.44;98959.16;5092423;28;20512;-66
2022/12/25 06:50:57;;;;;;;55.10;28.73;;;;;;;3.65;80.40;98975.44;5090135;28;20028;-66
2022/12/25 06:53:22;;;;;;;41.75;21.13;;;;;;;3.68;79.86;98982.25;5092360;28;20125;-66
2022/12/25 06:55:48;;;;;;;30.95;16.67;;;;;;;3.68;79.77;98984.97;5091493;28;20024;-69
2022/12/25 06:58:13;;;;;;;29.85;15.20;;;;;;;3.69;79.77;98992.84;5091902;28;20061;-68
2022/12/25 07:00:38;;;;;;;26.55;14.77;;;;;;;3.70;79.99;99005.34;5091587;28;20498;-68
2022/12/25 07:03:04;;;;;;;28.10;15.32;;;;;;;3.71;80.25;99012.44;5092034;28;20417;-68
2022/12/25 07:05:29;;;;;;;27.45;14.60;;;;;;;3.72;79.45;99016.81;5073202;28;20085;-68
2022/12/25 07:07:55;;;;;;;28.70;16.95;;;;;;;3.73;80.07;99014.94;5092613;28;20028;-69
2022/12/25 07:10:20;;;;;;;46.67;22.10;;;;;;;3.74;80.26;99013.88;5091771;28;20030;-68
2022/12/25 07:12:45;;;;;;;48.55;23.42;;;;;;;3.75;79.77;99028.25;5092381;28;20077;-68
2022/12/25 07:15:11;;;;;;;42.10;20.60;;;;;;;3.72;79.75;99026.84;5091732;28;20103;-68
2022/12/25 07:17:36;;;;;;;31.48;18.00;;;;;;;3.71;79.58;99031.44;5091474;28;20024;-67
2022/12/25 07:20:02;;;;;;;29.67;18.67;;;;;;;3.72;79.90;99032.28;5090997;28;20472;-67
2022/12/25 07:22:28;;;;;;;28.13;16.38;;;;;;;3.71;79.97;99030.63;5091424;28;20048;-68
2022/12/25 07:24:53;;;;;;;27.38;14.93;;;;;;;3.72;80.04;99029.56;5091503;28;20080;-68
2022/12/25 07:27:19;;;;;;;27.30;15.25;;;;;;;3.74;79.55;99032.84;5091208;28;20036;-68
2022/12/25 07:29:44;;;;;;;29.45;17.30;;;;;;;3.76;79.70;99036.16;5090588;28;20020;-67
2022/12/25 07:32:09;;;;;;;29.75;17.10;;;;;;;3.77;79.79;99032.38;5091557;28;20055;-69
2022/12/25 07:34:35;;;;;;;27.92;16.02;;;;;;;3.79;79.64;99032.97;5091326;28;20555;-68
2022/12/25 07:37:00;;;;;;;27.20;15.45;;;;;;;3.80;80.27;99031.06;5091466;28;20036;-68
2022/12/25 07:39:27;;;;;;;27.02;15.48;;;;;;;3.82;79.95;99029.78;5073060;28;20046;-68
2022/12/25 07:41:52;;;;;;;28.10;16.20;;;;;;;3.85;79.72;99020.34;5090574;28;20028;-69
2022/12/25 07:44:18;;;;;;;28.75;17.55;;;;;;;3.86;80.45;99020.13;5091164;28;20097;-67
2022/12/25 07:46:44;;;;;;;42.40;28.52;;;;;;;3.87;80.18;99021.72;5072866;28;20024;-68
2022/12/25 07:49:10;;;;;;;31.15;19.77;;;;;;;3.90;80.18;99020.44;5091069;28;20474;-68
2022/12/25 07:51:36;;;;;;;32.40;20.90;;;;;;;3.92;79.80;99022.91;5090281;28;20020;-68
2022/12/25 07:54:01;;;;;;;28.77;17.98;;;;;;;3.94;80.44;99032.47;5090955;28;20020;-68
2022/12/25 07:56:27;;;;;;;37.20;24.58;;;;;;;3.97;80.32;99034.72;5088429;28;20082;-68
2022/12/25 07:58:52;;;;;;;45.00;27.98;;;;;;;4.00;79.89;99036.13;5090130;28;20465;-68
2022/12/25 08:01:20;;;;;;;71.20;50.25;;;;;;;4.03;80.22;99043.78;5089223;28;20145;-68
2022/12/25 08:03:54;;;;;;;72.65;55.38;;;;;;;4.07;80.64;99038.72;5054401;28;20020;-68
2022/12/25 08:06:21;;;;;;;57.35;44.58;;;;;;;4.10;80.09;99036.34;5088586;28;20032;-69
2022/12/25 08:08:48;;;;;;;58.28;41.88;;;;;;;4.14;80.71;99037.50;5088474;28;20016;-69
2022/12/25 08:11:13;;;;;;;45.35;31.73;;;;;;;4.16;80.75;99043.53;5088819;28;20027;-68
2022/12/25 08:13:39;;;;;;;36.33;22.83;;;;;;;4.22;80.33;99049.88;5089303;28;20017;-68
2022/12/25 08:16:07;;;;;;;34.03;21.20;;;;;;;4.26;80.45;99055.69;5089163;28;20032;-68
2022/12/25 08:18:34;;;;;;;28.92;19.02;;;;;;;4.31;80.14;99050.31;5069689;28;20024;-68
2022/12/25 08:21:08;;;;;;;28.92;17.35;;;;;;;4.35;80.08;99045.25;5088697;28;20024;-68
2022/12/25 08:23:36;;;;;;;28.30;17.85;;;;;;;4.41;80.35;99036.16;5087862;28;20442;-68
2022/12/25 08:26:02;;;;;;;30.15;16.88;;;;;;;4.42;80.30;99037.78;5088682;28;20511;-68
2022/12/25 08:28:28;;;;;;;26.35;17.23;;;;;;;4.45;80.79;99038.13;5088472;28;20115;-68
2022/12/25 08:30:53;;;;;;;26.67;15.77;;;;;;;4.49;80.44;99040.34;5087585;28;20111;-68
2022/12/25 08:33:19;;;;;;;26.98;15.35;;;;;;;4.54;80.28;99037.75;5089092;28;20150;-68
2022/12/25 08:35:44;;;;;;;27.17;15.55;;;;;;;4.57;80.71;99035.34;5088174;28;20444;-68
2022/12/25 08:38:09;;;;;;;25.98;15.55;;;;;;;4.61;80.46;99041.16;5088446;28;20387;-68
2022/12/25 08:40:35;;;;;;;29.58;17.55;;;;;;;4.66;80.64;99049.41;5087520;28;20047;-68
2022/12/25 08:43:00;;;;;;;29.40;16.77;;;;;;;4.70;80.96;99058.69;5088577;28;20016;-68
2022/12/25 08:45:25;;;;;;;27.17;15.80;;;;;;;4.73;80.52;99069.06;5088480;28;20177;-69
2022/12/25 08:47:54;;;;;;;26.90;14.82;;;;;;;4.77;80.36;99061.28;5088088;28;20391;-68
2022/12/25 08:50:21;;;;;;;29.90;17.73;;;;;;;4.83;80.67;99070.34;5069367;28;20020;-68
2022/12/25 08:52:46;;;;;;;31.42;17.02;;;;;;;4.85;80.44;99066.34;5088240;28;20036;-69
2022/12/25 08:55:12;;;;;;;30.48;18.38;;;;;;;4.90;81.03;99077.28;5088548;28;20028;-69
2022/12/25 08:57:37;;;;;;;32.13;20.33;;;;;;;4.95;80.68;99082.00;5088047;28;20426;-69
2022/12/25 09:00:03;;;;;;;32.88;19.73;;;;;;;4.99;80.93;99076.88;5087854;28;20017;-68
2022/12/25 09:02:28;;;;;;;32.67;19.98;;;;;;;5.02;81.11;99065.53;5085149;28;20020;-68
2022/12/25 09:04:54;;;;;;;30.95;18.75;;;;;;;5.05;80.63;99067.75;5088052;28;20064;-69
2022/12/25 09:07:19;;;;;;;36.03;22.02;;;;;;;5.11;80.38;99065.94;5087216;28;20016;-69
2022/12/25 09:09:45;;;;;;;39.40;26.33;;;;;;;5.14;81.05;99069.00;5087867;28;20051;-68
2022/12/25 09:12:10;;;;;;;36.08;23.42;;;;;;;5.19;81.26;99076.41;5086996;28;20016;-69
2022/12/25 09:14:36;;;;;;;35.50;20.15;;;;;;;5.24;80.72;99071.06;5087667;28;20591;-70
2022/12/25 09:17:02;;;;;;;40.83;24.27;;;;;;;5.30;80.95;99082.88;5087971;28;20027;-68
2022/12/25 09:19:28;;;;;;;41.72;24.05;;;;;;;5.34;80.67;99081.28;5087726;28;20099;-68
2022/12/25 09:21:53;;;;;;;44.42;24.98;;;;;;;5.39;80.71;99073.22;5086969;28;20135;-70
2022/12/25 09:24:19;;;;;;;45.80;24.63;;;;;;;5.43;81.08;99071.66;5069494;28;20499;-68
2022/12/25 09:26:45;;;;;;;48.65;25.45;;;;;;;5.47;81.15;99066.56;5087420;28;20099;-68
2022/12/25 09:29:10;;;;;;;39.35;20.98;;;;;;;5.51;81.29;99084.00;5087841;28;20112;-69
2022/12/25 09:31:35;;;;;;;33.78;20.35;;;;;;;5.54;80.98;99078.06;5086660;28;20028;-69
2022/12/25 09:34:02;;;;;;;36.20;19.10;;;;;;;5.59;81.33;99082.78;5087128;28;20095;-69
2022/12/25 09:36:27;;;;;;;33.10;18.35;;;;;;;5.63;81.06;99076.59;5084229;28;20023;-69
2022/12/25 09:38:53;;;;;;;37.17;18.90;;;;;;;5.69;81.01;99087.56;5087459;28;20385;-68
2022/12/25 09:41:33;;;;;;;32.97;18.20;;;;;;;5.72;81.33;99079.72;5086554;28;20024;-68
2022/12/25 09:44:03;;;;;;;33.00;18.42;;;;;;;5.76;81.32;99072.69;5086289;28;20035;-69
2022/12/25 09:46:39;;;;;;;34.20;18.50;;;;;;;5.82;81.08;99082.59;5087184;28;20016;-68
2022/12/25 09:49:19;;;;;;;31.10;16.95;;;;;;;5.87;80.92;99083.75;5087343;28;20056;-69
2022/12/25 09:51:52;;;;;;;34.17;18.30;;;;;;;5.93;80.99;99085.47;5086273;28;20028;-69
2022/12/25 09:54:38;;;;;;;35.10;19.58;;;;;;;5.97;80.95;99087.44;5085982;28;20020;-69
2022/12/25 09:57:04;;;;;;;35.42;16.77;;;;;;;6.02;81.10;99084.00;5086303;28;20556;-69
2022/12/25 09:59:29;;;;;;;37.05;17.58;;;;;;;6.06;81.20;99077.00;5087190;28;20072;-69
2022/12/25 10:02:33;;;;;;;36.83;19.85;;;;;;;6.12;81.00;99080.59;5068108;28;20039;-69
2022/12/25 10:05:20;;;;;;;35.63;18.55;;;;;;;6.18;81.12;99081.47;5085544;28;20502;-69
2022/12/25 10:08:09;;;;;;;29.85;17.23;;;;;;;6.24;81.29;99072.31;5085088;28;20028;-69
2022/12/25 10:10:59;;;;;;;35.63;19.58;;;;;;;6.30;80.86;99075.94;5065619;28;20036;-69
2022/12/25 10:13:30;;;;;;;35.60;17.65;;;;;;;6.36;80.84;99075.75;5085040;28;20020;-69
2022/12/25 10:16:14;;;;;;;32.65;16.95;;;;;;;6.40;80.91;99062.41;5086808;28;20024;-69
2022/12/25 10:18:54;;;;;;;29.73;16.58;;;;;;;6.45;80.87;99054.31;5066047;28;20088;-69
2022/12/25 10:21:22;;;;;;;28.70;15.75;;;;;;;6.52;80.98;99056.88;5084163;28;20075;-69
2022/12/25 10:24:16;;;;;;;26.17;15.02;;;;;;;6.57;81.05;99069.72;5085618;28;20137;-69
2022/12/25 10:26:42;;;;;;;32.25;15.70;;;;;;;6.62;81.13;99067.84;5072055;28;20713;-69
2022/12/25 10:29:18;;;;;;;29.75;16.73;;;;;;;6.66;80.93;99068.19;5085819;28;20024;-68
2022/12/25 10:31:45;;;;;;;24.77;14.52;;;;;;;6.71;80.82;99070.97;5082039;28;20141;-68
2022/12/25 10:34:12;;;;;;;25.52;14.48;;;;;;;6.75;80.71;99065.81;5066845;28;20032;-69
2022/12/25 10:36:38;;;;;;;29.42;14.43;;;;;;;6.79;80.47;99070.50;5085558;28;20028;-69
2022/12/25 10:39:03;;;;;;;26.98;15.68;;;;;;;6.82;80.71;99061.00;5085190;28;20073;-69
2022/12/25 10:41:54;;;;;;;27.38;14.20;;;;;;;6.86;80.67;99059.41;5064630;28;20032;-68
2022/12/25 10:44:23;;;;;;;25.08;13.93;;;;;;;6.90;80.43;99051.53;5086241;28;20539;-68
2022/12/25 10:46:56;;;;;;;28.77;15.47;;;;;;;6.94;80.40;99044.47;5085229;28;20041;-69
2022/12/25 10:49:27;;;;;;;25.05;14.30;;;;;;;6.96;80.58;99048.59;5085546;28;20070;-69
2022/12/25 10:51:52;;;;;;;27.92;14.70;;;;;;;6.99;80.35;99041.81;5084113;28;20858;-69
2022/12/25 10:54:24;;;;;;;25.13;12.48;;;;;;;7.03;80.48;99039.38;5085767;28;20056;-68
2022/12/25 10:57:19;;;;;;;25.50;12.93;;;;;;;7.06;80.56;99033.41;5084872;28;20020;-68
2022/12/25 10:59:46;;;;;;;25.70;13.23;;;;;;;7.11;80.32;99047.94;5083871;28;20044;-69
2022/12/25 11:02:24;;;;;;;30.80;16.08;;;;;;;7.16;80.19;99049.88;5065015;28;20612;-69
2022/12/25 11:04:57;;;;;;;30.08;16.63;;;;;;;7.21;79.92;99041.72;5083985;28;20027;-67
2022/12/25 11:07:24;;;;;;;33.63;16.88;;;;;;;7.25;80.16;99042.88;5083789;28;20011;-67
2022/12/25 11:09:52;;;;;;;44.83;23.30;;;;;;;7.29;80.33;99046.72;5083614;28;20512;-68
2022/12/25 11:12:19;;;;;;;28.05;15.32;;;;;;;7.33;80.42;99049.75;5084600;28;20107;-67
2022/12/25 11:14:57;;;;;;;34.13;17.75;;;;;;;7.36;80.50;99042.94;5084910;28;20032;-67
2022/12/25 11:17:24;;;;;;;26.23;14.65;;;;;;;7.40;79.75;99042.16;5085805;28;20077;-68
2022/12/25 11:19:52;;;;;;;23.83;11.93;;;;;;;7.42;80.03;99034.53;5085550;28;20027;-68
2022/12/25 11:22:18;;;;;;;22.05;12.75;;;;;;;7.45;80.02;99022.25;5067197;28;20420;-67
2022/12/25 11:24:43;;;;;;;20.80;11.82;;;;;;;7.46;80.08;99015.72;5084512;28;20028;-67
2022/12/25 11:27:28;;;;;;;26.50;14.85;;;;;;;7.48;79.84;99012.75;5067142;28;20038;-67
2022/12/25 11:29:58;;;;;;;19.38;10.65;;;;;;;7.53;79.68;99015.50;5084834;28;20020;-68
2022/12/25 11:32:30;;;;;;;19.27;12.32;;;;;;;7.55;79.54;99002.41;5089215;28;20032;-68
2022/12/25 11:34:58;;;;;;;24.73;13.32;;;;;;;7.57;79.17;98994.78;5087423;28;20451;-67
2022/12/25 11:37:32;;;;;;;20.23;11.38;;;;;;;7.58;79.42;98997.25;5088445;28;20295;-67
2022/12/25 11:39:58;;;;;;;22.85;12.68;;;;;;;7.62;79.48;98994.00;5087328;28;20047;-67
2022/12/25 11:42:34;;;;;;;19.92;13.02;;;;;;;7.65;79.76;98993.47;5089030;28;20573;-67
2022/12/25 11:45:19;;;;;;;26.05;11.27;;;;;;;7.69;78.97;98994.59;5087956;28;20166;-67
2022/12/25 11:48:11;;;;;;;25.40;11.73;;;;;;;7.72;78.94;99000.34;5067523;28;20114;-67
2022/12/25 11:50:45;;;;;;;22.33;8.82;;;;;;;7.73;79.14;98995.72;5075837;28;20043;-67
2022/12/25 11:53:19;;;;;;;16.73;9.23;;;;;;;7.73;79.13;98988.31;5089137;28;20021;-67
2022/12/25 11:55:55;;;;;;;18.55;8.38;;;;;;;7.75;78.86;98982.59;5087733;28;20032;-67
2022/12/25 11:58:27;;;;;;;17.33;8.55;;;;;;;7.76;78.79;98981.50;5088884;28;20048;-68
2022/12/25 12:00:56;;;;;;;17.95;8.00;;;;;;;7.78;78.55;98967.59;5088067;28;20020;-67
2022/12/25 12:03:27;;;;;;;20.45;10.90;;;;;;;7.80;78.45;98973.63;5088797;28;20077;-67
2022/12/25 12:06:03;;;;;;;16.42;8.73;;;;;;;7.81;78.46;98970.59;5086171;28;20032;-67
2022/12/25 12:08:30;;;;;;;16.77;11.13;;;;;;;7.84;78.18;98977.47;5086707;28;20107;-67
2022/12/25 12:11:14;;;;;;;20.40;10.95;;;;;;;7.84;78.36;98975.53;5087124;28;20028;-67
2022/12/25 12:13:42;;;;;;;20.70;10.65;;;;;;;7.89;78.04;98980.22;5087515;28;20024;-67
2022/12/25 12:16:08;;;;;;;20.42;11.10;;;;;;;7.92;77.92;98982.44;5086858;28;20024;-68
2022/12/25 12:18:34;;;;;;;18.38;10.93;;;;;;;7.95;77.86;98984.59;5086711;28;20036;-68
2022/12/25 12:21:26;;;;;;;19.02;9.95;;;;;;;7.96;78.36;98977.25;5085244;28;20525;-68
2022/12/25 12:24:04;;;;;;;17.27;10.55;;;;;;;7.99;78.16;98973.97;5088403;28;20085;-68
2022/12/25 12:26:36;;;;;;;16.33;8.23;;;;;;;8.01;78.16;98955.41;5087941;28;20480;-68
2022/12/25 12:29:05;;;;;;;15.07;8.05;;;;;;;8.03;77.81;98961.44;5088944;28;20088;-68
2022/12/25 12:31:47;;;;;;;22.50;10.93;;;;;;;8.03;77.88;98970.44;5088687;28;20027;-67
2022/12/25 12:34:26;;;;;;;20.00;11.73;;;;;;;8.05;77.16;98962.00;5087693;28;20032;-67
2022/12/25 12:37:04;;;;;;;15.70;7.20;;;;;;;8.09;77.47;98957.63;5087094;28;20043;-68
2022/12/25 12:39:39;;;;;;;13.85;7.53;;;;;;;8.11;77.80;98955.47;5069009;28;20035;-67
2022/12/25 12:42:14;;;;;;;16.25;7.95;;;;;;;8.13;76.93;98953.28;5087511;28;21295;-70
2022/12/25 12:44:40;;;;;;;17.52;7.78;;;;;;;8.15;77.38;98956.53;5086526;28;20553;-68
2022/12/25 12:47:05;;;;;;;16.85;7.72;;;;;;;8.15;76.80;98966.66;5087586;28;20039;-68
2022/12/25 12:49:32;;;;;;;16.98;8.93;;;;;;;8.16;77.32;98968.31;5087864;28;20059;-68
2022/12/25 12:52:12;;;;;;;17.27;8.38;;;;;;;8.16;77.37;98971.03;5087417;28;21379;-68
2022/12/25 12:55:13;;;;;;;14.93;9.27;;;;;;;8.17;76.97;98978.16;5087920;28;20035;-68
2022/12/25 12:57:39;;;;;;;18.80;9.90;;;;;;;8.18;76.13;98972.41;5014049;28;20045;-68
2022/12/25 13:00:28;;;;;;;25.20;13.05;;;;;;;8.18;77.04;98975.13;5069950;28;20438;-68
2022/12/25 13:03:17;;;;;;;16.33;8.07;;;;;;;8.22;76.67;98983.63;5086662;28;20028;-67
2022/12/25 13:05:51;;;;;;;19.63;10.68;;;;;;;8.23;76.28;98987.19;5086936;28;20035;-68
2022/12/25 13:08:22;;;;;;;21.85;9.55;;;;;;;8.22;76.04;98986.38;5084950;28;20051;-69
2022/12/25 13:10:51;;;;;;;23.52;11.63;;;;;;;8.21;76.43;98990.19;5087285;28;20028;-69
2022/12/25 13:13:26;;;;;;;21.98;11.07;;;;;;;8.22;76.24;98991.00;5086723;28;20023;-68
2022/12/25 13:15:52;;;;;;;21.42;12.82;;;;;;;8.24;76.02;98991.56;5083860;28;20111;-68
2022/12/25 13:18:17;;;;;;;16.08;9.32;;;;;;;8.23;76.07;98985.28;5086840;28;20115;-69